createdAt,value
2017-07-23T00:01:59.411Z,19.40
2017-07-23T00:04:27.739Z,19.50
2017-07-23T00:06:55.252Z,19.40
2017-07-23T00:09:23.532Z,19.40
2017-07-23T00:11:51.853Z,19.40
2017-07-23T00:14:19.359Z,19.40
2017-07-23T00:16:46.875Z,19.60
2017-07-23T00:19:14.430Z,20.00
2017-07-23T00:21:41.941Z,20.00
2017-07-23T00:24:09.453Z,19.80
2017-07-23T00:26:37.012Z,19.60
2017-07-23T00:29:04.522Z,19.20
2017-07-23T00:31:32.062Z,18.90
2017-07-23T00:33:59.567Z,18.80
2017-07-23T00:36:27.125Z,18.70
2017-07-23T00:38:54.635Z,18.50
2017-07-23T00:41:22.143Z,18.40
2017-07-23T00:43:49.707Z,18.40
2017-07-23T00:46:17.232Z,18.20
2017-07-23T00:48:44.740Z,18.30
2017-07-23T00:51:12.305Z,18.30
2017-07-23T00:53:39.814Z,18.20
2017-07-23T00:56:07.320Z,18.20
2017-07-23T00:58:34.859Z,18.20
2017-07-23T01:01:02.368Z,18.10
2017-07-23T01:03:29.916Z,18.10
2017-07-23T01:05:57.433Z,18.10
2017-07-23T01:08:24.950Z,17.90
2017-07-23T01:10:52.516Z,17.60
2017-07-23T01:13:20.023Z,17.50
2017-07-23T01:15:47.545Z,17.50
2017-07-23T01:18:15.103Z,17.50
2017-07-23T01:20:42.635Z,17.40
2017-07-23T01:23:10.177Z,17.50
2017-07-23T01:25:37.744Z,17.60
2017-07-23T01:28:05.259Z,17.60
2017-07-23T01:30:32.776Z,17.70
2017-07-23T01:33:00.337Z,17.70
2017-07-23T01:35:27.851Z,17.70
2017-07-23T01:37:56.127Z,17.90
2017-07-23T01:40:23.703Z,17.80
2017-07-23T01:42:51.211Z,17.90
2017-07-23T01:45:18.713Z,17.90
2017-07-23T01:47:46.271Z,17.60
2017-07-23T01:50:14.581Z,17.90
2017-07-23T01:52:42.118Z,17.80
2017-07-23T01:55:09.647Z,18.00
2017-07-23T01:57:37.174Z,18.00
2017-07-23T02:00:04.699Z,17.80
2017-07-23T02:02:32.207Z,17.70
2017-07-23T02:04:59.750Z,17.90
2017-07-23T02:07:27.246Z,17.90
2017-07-23T02:09:54.782Z,17.80
2017-07-23T02:12:22.288Z,17.60
2017-07-23T02:14:50.584Z,17.60
2017-07-23T02:17:18.108Z,17.50
2017-07-23T02:19:45.644Z,17.40
2017-07-23T02:22:14.027Z,17.20
2017-07-23T02:24:41.596Z,17.10
2017-07-23T02:27:09.151Z,17.00
2017-07-23T02:29:36.669Z,17.00
2017-07-23T02:32:04.177Z,17.00
2017-07-23T02:34:31.702Z,16.90
2017-07-23T02:36:59.208Z,17.00
2017-07-23T02:39:26.751Z,17.00
2017-07-23T02:41:54.265Z,16.80
2017-07-23T02:44:22.441Z,16.60
2017-07-23T02:46:49.973Z,16.70
2017-07-23T02:49:17.483Z,16.60
2017-07-23T02:51:45.004Z,16.50
2017-07-23T02:54:12.519Z,16.40
2017-07-23T02:56:40.052Z,16.60
2017-07-23T02:59:07.560Z,16.50
2017-07-23T03:01:35.852Z,16.70
2017-07-23T03:04:04.124Z,16.70
2017-07-23T03:06:31.646Z,16.60
2017-07-23T03:08:59.159Z,16.50
2017-07-23T03:11:26.692Z,16.40
2017-07-23T03:13:55.019Z,16.40
2017-07-23T03:16:22.552Z,16.40
2017-07-23T03:18:50.102Z,16.60
2017-07-23T03:21:19.319Z,16.80
2017-07-23T03:23:46.824Z,16.70
2017-07-23T03:26:14.356Z,16.90
2017-07-23T03:28:41.867Z,16.90
2017-07-23T03:31:10.032Z,17.10
2017-07-23T03:33:37.548Z,17.10
2017-07-23T03:36:05.075Z,16.90
2017-07-23T03:38:33.406Z,16.90
2017-07-23T03:41:00.923Z,16.90
2017-07-23T03:43:28.456Z,17.00
2017-07-23T03:45:55.984Z,17.10
2017-07-23T03:48:23.523Z,17.20
2017-07-23T03:50:51.031Z,17.10
2017-07-23T03:53:18.592Z,17.20
2017-07-23T03:55:46.100Z,17.00
2017-07-23T03:58:13.619Z,16.90
2017-07-23T04:00:41.196Z,17.00
2017-07-23T04:03:09.467Z,17.10
2017-07-23T04:05:37.737Z,16.80
2017-07-23T04:08:06.025Z,16.90
2017-07-23T04:10:33.535Z,16.80
2017-07-23T04:13:01.063Z,16.70
2017-07-23T04:15:28.572Z,16.90
2017-07-23T04:17:56.139Z,17.00
2017-07-23T04:20:23.713Z,16.90
2017-07-23T04:22:51.987Z,16.90
2017-07-23T04:25:19.503Z,16.90
2017-07-23T04:27:47.040Z,16.70
2017-07-23T04:30:14.596Z,16.50
2017-07-23T04:32:42.124Z,16.20
2017-07-23T04:35:09.632Z,16.20
2017-07-23T04:37:37.164Z,16.20
2017-07-23T04:40:04.693Z,16.30
2017-07-23T04:42:32.205Z,16.10
2017-07-23T04:44:59.726Z,16.00
2017-07-23T04:47:27.258Z,16.40
2017-07-23T04:49:54.790Z,16.60
2017-07-23T04:52:22.330Z,16.80
2017-07-23T04:54:49.880Z,17.10
2017-07-23T04:57:18.160Z,17.50
2017-07-23T04:59:46.427Z,17.50
2017-07-23T05:02:14.723Z,17.10
2017-07-23T05:04:42.231Z,17.10
2017-07-23T05:07:09.752Z,17.40
2017-07-23T05:09:37.293Z,17.70
2017-07-23T05:12:04.809Z,18.00
2017-07-23T05:14:32.352Z,18.30
2017-07-23T05:16:59.900Z,18.60
2017-07-23T05:19:27.402Z,18.90
2017-07-23T05:21:54.959Z,18.70
2017-07-23T05:24:22.469Z,18.70
2017-07-23T05:26:50.208Z,18.30
2017-07-23T05:29:17.732Z,18.20
2017-07-23T05:31:45.245Z,18.00
2017-07-23T05:34:12.783Z,17.60
2017-07-23T05:36:41.062Z,17.50
2017-07-23T05:39:09.383Z,17.60
2017-07-23T05:41:36.912Z,17.60
2017-07-23T05:44:04.497Z,18.00
2017-07-23T05:46:32.009Z,18.30
2017-07-23T05:48:59.571Z,18.30
2017-07-23T05:51:27.102Z,18.10
2017-07-23T05:53:54.659Z,18.00
2017-07-23T05:56:22.197Z,17.90
2017-07-23T05:58:49.723Z,17.90
2017-07-23T06:01:18.052Z,18.00
2017-07-23T06:03:45.553Z,18.00
2017-07-23T06:06:13.869Z,18.30
2017-07-23T06:08:41.381Z,18.30
2017-07-23T06:11:08.919Z,18.40
2017-07-23T06:13:36.450Z,18.50
2017-07-23T06:16:03.972Z,18.60
2017-07-23T06:18:32.299Z,18.80
2017-07-23T06:20:59.810Z,18.80
2017-07-23T06:23:28.129Z,18.90
2017-07-23T06:25:55.652Z,18.90
2017-07-23T06:28:23.159Z,19.20
2017-07-23T06:30:50.695Z,19.40
2017-07-23T06:33:18.203Z,19.50
2017-07-23T06:35:45.726Z,19.60
2017-07-23T06:38:13.244Z,19.60
2017-07-23T06:40:41.552Z,19.60
2017-07-23T06:43:09.084Z,19.60
2017-07-23T06:45:37.383Z,19.20
2017-07-23T06:48:04.909Z,19.10
2017-07-23T06:50:32.470Z,19.00
2017-07-23T06:52:59.975Z,18.80
2017-07-23T06:55:27.500Z,18.80
2017-07-23T06:57:55.037Z,18.90
2017-07-23T07:00:22.574Z,18.80
2017-07-23T07:02:50.104Z,18.70
2017-07-23T07:05:17.639Z,18.80
2017-07-23T07:07:45.912Z,18.70
2017-07-23T07:10:14.210Z,18.80
2017-07-23T07:12:42.481Z,18.80
2017-07-23T07:15:20.708Z,18.80
2017-07-23T07:17:48.236Z,19.00
2017-07-23T07:20:15.748Z,18.80
2017-07-23T07:22:43.281Z,18.90
2017-07-23T07:25:10.800Z,19.00
2017-07-23T07:27:38.327Z,19.00
2017-07-23T07:30:05.836Z,19.10
2017-07-23T07:32:34.122Z,19.40
2017-07-23T07:35:02.407Z,19.70
2017-07-23T07:37:30.728Z,19.70
2017-07-23T07:40:01.271Z,19.70
2017-07-23T07:42:28.813Z,19.70
2017-07-23T07:44:56.328Z,19.80
2017-07-23T07:47:23.963Z,20.00
2017-07-23T07:49:51.552Z,20.00
2017-07-23T07:52:19.899Z,20.00
2017-07-23T07:54:47.486Z,19.90
2017-07-23T07:57:15.829Z,19.80
2017-07-23T07:59:43.376Z,19.80
2017-07-23T08:02:10.960Z,19.90
2017-07-23T08:04:38.565Z,19.80
2017-07-23T08:07:06.170Z,19.90
2017-07-23T08:09:33.746Z,20.00
2017-07-23T08:12:02.100Z,20.20
2017-07-23T08:14:29.681Z,20.10
2017-07-23T08:16:58.080Z,21.30
2017-07-23T08:19:26.425Z,21.50
2017-07-23T08:21:54.040Z,21.40
2017-07-23T08:24:21.590Z,21.40
2017-07-23T08:26:49.963Z,21.10
2017-07-23T08:29:18.256Z,21.20
2017-07-23T08:31:46.594Z,21.10
2017-07-23T08:34:14.108Z,21.00
2017-07-23T08:36:42.429Z,21.10
2017-07-23T08:39:10.029Z,21.10
2017-07-23T08:41:37.579Z,21.40
2017-07-23T08:44:10.954Z,21.70
2017-07-23T08:46:38.632Z,21.70
2017-07-23T08:49:06.231Z,21.70
2017-07-23T08:51:33.775Z,21.70
2017-07-23T08:54:02.094Z,21.50
2017-07-23T08:56:29.681Z,21.50
2017-07-23T08:58:57.228Z,21.60
2017-07-23T09:01:24.792Z,21.70
2017-07-23T09:03:52.316Z,21.80
2017-07-23T09:06:19.856Z,21.90
2017-07-23T09:08:48.168Z,22.20
2017-07-23T09:11:15.763Z,22.10
2017-07-23T09:13:43.279Z,22.30
2017-07-23T09:16:10.830Z,22.20
2017-07-23T09:18:38.380Z,22.30
2017-07-23T09:21:05.944Z,22.20
2017-07-23T09:23:34.239Z,22.00
2017-07-23T09:26:01.784Z,22.00
2017-07-23T09:28:29.350Z,21.90
2017-07-23T09:30:56.872Z,21.70
2017-07-23T09:33:24.443Z,21.80
2017-07-23T09:35:51.964Z,21.80
2017-07-23T09:38:19.501Z,22.00
2017-07-23T09:40:47.019Z,22.20
2017-07-23T09:43:14.580Z,22.40
2017-07-23T09:45:42.220Z,22.30
2017-07-23T09:48:09.765Z,22.30
2017-07-23T09:50:37.290Z,22.30
2017-07-23T09:53:04.823Z,22.30
2017-07-23T09:55:33.123Z,23.10
2017-07-23T09:58:04.368Z,23.10
2017-07-23T10:00:32.135Z,23.50
2017-07-23T10:03:04.639Z,23.50
2017-07-23T10:05:32.201Z,23.40
2017-07-23T10:07:59.756Z,23.30
2017-07-23T10:10:27.267Z,23.20
2017-07-23T10:12:54.816Z,23.20
2017-07-23T10:15:22.352Z,23.10
2017-07-23T10:17:50.707Z,23.20
2017-07-23T10:20:18.278Z,23.60
2017-07-23T10:22:45.853Z,24.10
2017-07-23T10:25:13.370Z,24.30
2017-07-23T10:27:41.667Z,24.70
2017-07-23T10:30:09.344Z,24.70
2017-07-23T10:32:36.893Z,24.70
2017-07-23T10:35:04.452Z,24.40
2017-07-23T10:37:31.967Z,24.20
2017-07-23T10:39:59.472Z,23.90
2017-07-23T10:42:27.031Z,23.70
2017-07-23T10:44:54.565Z,23.30
2017-07-23T10:47:22.850Z,23.20
2017-07-23T10:49:50.395Z,23.20
2017-07-23T10:52:18.702Z,22.90
2017-07-23T10:54:46.232Z,22.90
2017-07-23T10:57:13.741Z,22.90
2017-07-23T10:59:41.278Z,22.90
2017-07-23T11:02:08.792Z,22.90
2017-07-23T11:04:36.339Z,22.80
2017-07-23T11:07:03.850Z,22.70
2017-07-23T11:09:31.356Z,22.70
2017-07-23T11:11:58.881Z,22.70
2017-07-23T11:14:26.391Z,22.80
2017-07-23T11:16:53.918Z,22.80
2017-07-23T11:19:21.456Z,22.70
2017-07-23T11:21:48.980Z,22.80
2017-07-23T11:24:16.512Z,22.80
2017-07-23T11:26:44.030Z,22.70
2017-07-23T11:29:11.599Z,22.70
2017-07-23T11:31:39.112Z,22.70
2017-07-23T11:34:06.623Z,22.70
2017-07-23T11:36:34.148Z,22.90
2017-07-23T11:39:02.459Z,22.90
2017-07-23T11:41:29.979Z,22.90
2017-07-23T11:43:57.539Z,23.00
2017-07-23T11:46:25.055Z,23.00
2017-07-23T11:48:52.564Z,23.10
2017-07-23T11:51:21.320Z,23.10
2017-07-23T11:53:48.832Z,23.10
2017-07-23T11:56:17.134Z,22.90
2017-07-23T11:58:44.659Z,22.80
2017-07-23T12:01:12.979Z,22.80
2017-07-23T12:03:40.512Z,22.80
2017-07-23T12:06:08.113Z,22.80
2017-07-23T12:08:35.637Z,22.70
2017-07-23T12:11:03.192Z,22.70
2017-07-23T12:13:30.719Z,22.70
2017-07-23T12:16:05.377Z,22.60
2017-07-23T12:18:33.101Z,22.50
2017-07-23T12:21:00.666Z,22.60
2017-07-23T12:23:28.175Z,22.60
2017-07-23T12:25:55.719Z,22.60
2017-07-23T12:28:23.247Z,22.60
2017-07-23T12:30:50.760Z,22.70
2017-07-23T12:33:18.288Z,22.70
2017-07-23T12:35:46.572Z,22.80
2017-07-23T12:38:14.876Z,22.70
2017-07-23T12:40:42.869Z,22.70
2017-07-23T12:43:10.402Z,22.80
2017-07-23T12:45:37.923Z,23.00
2017-07-23T12:48:05.499Z,23.10
2017-07-23T12:50:33.780Z,23.50
2017-07-23T12:53:01.287Z,23.50
2017-07-23T12:55:28.815Z,23.50
2017-07-23T12:57:56.332Z,23.40
2017-07-23T13:00:23.875Z,23.30
2017-07-23T13:02:52.260Z,23.30
2017-07-23T13:05:19.825Z,23.20
2017-07-23T13:07:47.335Z,23.10
2017-07-23T13:10:14.843Z,23.20
2017-07-23T13:12:42.371Z,23.10
2017-07-23T13:15:09.961Z,23.00
2017-07-23T13:17:37.472Z,23.00
2017-07-23T13:20:04.981Z,23.10
2017-07-23T13:22:32.508Z,23.30
2017-07-23T13:25:00.029Z,23.30
2017-07-23T13:27:28.324Z,23.30
2017-07-23T13:29:55.836Z,23.20
2017-07-23T13:32:23.369Z,23.30
2017-07-23T13:34:50.906Z,23.30
2017-07-23T13:37:18.417Z,23.40
2017-07-23T13:39:46.890Z,23.50
2017-07-23T13:42:14.449Z,23.50
2017-07-23T13:44:41.959Z,23.50
2017-07-23T13:47:10.248Z,23.20
2017-07-23T13:49:37.799Z,23.20
2017-07-23T13:52:05.311Z,23.00
2017-07-23T13:54:32.824Z,22.90
2017-07-23T13:57:00.365Z,22.80
2017-07-23T13:59:28.647Z,22.60
2017-07-23T14:01:56.951Z,22.60
2017-07-23T14:04:24.503Z,22.60
2017-07-23T14:06:52.055Z,22.50
2017-07-23T14:09:19.571Z,22.40
2017-07-23T14:11:47.081Z,22.30
2017-07-23T14:14:14.616Z,22.20
2017-07-23T14:16:42.927Z,22.20
2017-07-23T14:19:10.438Z,22.20
2017-07-23T14:21:38.013Z,22.20
2017-07-23T14:24:06.302Z,22.10
2017-07-23T14:26:33.807Z,22.10
2017-07-23T14:29:02.112Z,22.10
2017-07-23T14:31:29.700Z,22.10
2017-07-23T14:33:59.066Z,22.20
2017-07-23T14:36:26.576Z,22.30
2017-07-23T14:38:54.087Z,22.20
2017-07-23T14:41:21.647Z,22.20
2017-07-23T14:43:49.165Z,22.20
2017-07-23T14:46:16.683Z,22.10
2017-07-23T14:48:44.211Z,22.00
2017-07-23T14:51:11.728Z,22.00
2017-07-23T14:53:39.254Z,21.90
2017-07-23T14:56:06.811Z,21.90
2017-07-23T14:58:34.326Z,21.70
2017-07-23T15:01:01.831Z,21.70
2017-07-23T15:03:29.355Z,21.60
2017-07-23T15:05:56.905Z,21.60
2017-07-23T15:08:24.420Z,21.50
2017-07-23T15:10:51.971Z,21.50
2017-07-23T15:13:19.480Z,21.70
2017-07-23T15:15:47.010Z,21.50
2017-07-23T15:18:15.632Z,21.50
2017-07-23T15:20:43.148Z,21.50
2017-07-23T15:23:10.650Z,21.60
2017-07-23T15:25:38.176Z,21.60
2017-07-23T15:28:06.463Z,21.60
2017-07-23T15:30:33.991Z,21.60
2017-07-23T15:33:01.504Z,21.50
2017-07-23T15:35:29.043Z,21.60
2017-07-23T15:37:57.346Z,21.40
2017-07-23T15:40:24.863Z,21.40
2017-07-23T15:42:53.160Z,21.40
2017-07-23T15:45:20.683Z,21.40
2017-07-23T15:47:48.208Z,21.50
2017-07-23T15:50:15.715Z,21.30
2017-07-23T15:52:43.249Z,21.40
2017-07-23T15:55:10.761Z,21.60
2017-07-23T15:57:38.286Z,21.50
2017-07-23T16:00:05.792Z,21.40
2017-07-23T16:02:33.323Z,21.40
2017-07-23T16:05:01.608Z,21.20
2017-07-23T16:07:29.216Z,21.10
2017-07-23T16:09:56.735Z,21.10
2017-07-23T16:12:25.016Z,21.00
2017-07-23T16:14:52.597Z,21.00
2017-07-23T16:17:20.113Z,21.10
2017-07-23T16:19:48.427Z,21.20
2017-07-23T16:22:15.936Z,21.20
2017-07-23T16:24:43.496Z,21.20
2017-07-23T16:27:11.013Z,21.20
2017-07-23T16:29:38.530Z,21.10
2017-07-23T16:32:06.072Z,21.10
2017-07-23T16:34:33.607Z,21.00
2017-07-23T16:37:01.159Z,20.70
2017-07-23T16:39:28.671Z,20.90
2017-07-23T16:41:56.948Z,20.80
2017-07-23T16:44:25.259Z,21.00
2017-07-23T16:46:52.774Z,20.90
2017-07-23T16:49:20.305Z,21.10
2017-07-23T16:51:47.828Z,21.00
2017-07-23T16:54:15.648Z,21.00
2017-07-23T16:56:43.190Z,21.10
2017-07-23T16:59:10.719Z,21.20
2017-07-23T17:01:38.226Z,21.30
2017-07-23T17:04:05.759Z,21.30
2017-07-23T17:06:33.280Z,21.10
2017-07-23T17:09:01.572Z,21.10
2017-07-23T17:11:29.077Z,21.10
2017-07-23T17:13:56.609Z,21.10
2017-07-23T17:16:24.134Z,21.10
2017-07-23T17:18:52.421Z,20.90
2017-07-23T17:21:20.729Z,21.00
2017-07-23T17:23:48.260Z,21.00
2017-07-23T17:26:15.771Z,20.90
2017-07-23T17:28:43.304Z,20.70
2017-07-23T17:31:10.815Z,20.70
2017-07-23T17:33:38.347Z,20.80
2017-07-23T17:36:05.875Z,20.70
2017-07-23T17:38:33.387Z,20.60
2017-07-23T17:41:00.935Z,20.70
2017-07-23T17:43:28.465Z,20.60
2017-07-23T17:45:55.975Z,20.50
2017-07-23T17:48:23.520Z,20.70
2017-07-23T17:50:51.023Z,20.70
2017-07-23T17:53:18.576Z,20.60
2017-07-23T17:55:46.096Z,20.70
2017-07-23T17:58:13.616Z,20.70
2017-07-23T18:00:41.146Z,20.70
2017-07-23T18:03:09.419Z,20.60
2017-07-23T18:05:36.968Z,20.50
2017-07-23T18:08:04.498Z,20.40
2017-07-23T18:10:32.007Z,20.30
2017-07-23T18:13:00.300Z,20.20
2017-07-23T18:15:27.812Z,20.10
2017-07-23T18:17:55.349Z,20.20
2017-07-23T18:20:22.877Z,20.10
2017-07-23T18:22:50.391Z,19.90
2017-07-23T18:25:17.927Z,19.90
2017-07-23T18:27:45.449Z,20.00
2017-07-23T18:30:12.979Z,20.10
2017-07-23T18:32:40.564Z,20.10
2017-07-23T18:35:08.844Z,20.10
2017-07-23T18:37:37.117Z,20.10
2017-07-23T18:40:05.426Z,20.10
2017-07-23T18:42:33.019Z,20.00
2017-07-23T18:45:00.524Z,20.00
2017-07-23T18:47:28.804Z,19.80
2017-07-23T18:49:56.347Z,19.70
2017-07-23T18:52:24.648Z,19.70
2017-07-23T18:54:52.214Z,19.70
2017-07-23T18:57:19.728Z,19.90
2017-07-23T18:59:47.239Z,19.80
2017-07-23T19:02:14.759Z,19.60
2017-07-23T19:04:42.268Z,19.60
2017-07-23T19:07:09.886Z,19.40
2017-07-23T19:09:37.498Z,19.40
2017-07-23T19:12:05.017Z,19.40
2017-07-23T19:14:32.530Z,19.20
2017-07-23T19:17:00.059Z,19.10
2017-07-23T19:19:27.576Z,19.10
2017-07-23T19:21:55.880Z,19.10
2017-07-23T19:24:23.396Z,19.10
2017-07-23T19:26:50.925Z,19.10
2017-07-23T19:29:18.451Z,19.10
2017-07-23T19:31:46.732Z,19.00
2017-07-23T19:34:14.263Z,19.00
2017-07-23T19:36:41.783Z,19.00
2017-07-23T19:39:09.315Z,18.90
2017-07-23T19:41:36.820Z,19.10
2017-07-23T19:44:04.327Z,18.90
2017-07-23T19:46:31.897Z,18.70
2017-07-23T19:48:59.403Z,18.80
2017-07-23T19:51:26.932Z,18.80
2017-07-23T19:53:54.457Z,19.00
2017-07-23T19:56:22.770Z,18.80
2017-07-23T19:58:50.283Z,18.70
2017-07-23T20:01:17.827Z,18.90
2017-07-23T20:03:45.353Z,19.00
2017-07-23T20:06:12.865Z,19.00
2017-07-23T20:08:40.412Z,18.70
2017-07-23T20:11:07.934Z,18.70
2017-07-23T20:13:35.496Z,18.70
2017-07-23T20:16:03.046Z,18.70
2017-07-23T20:18:30.583Z,18.60
2017-07-23T20:20:58.874Z,18.80
2017-07-23T20:23:26.379Z,18.80
2017-07-23T20:25:53.907Z,18.80
2017-07-23T20:28:21.420Z,19.00
2017-07-23T20:30:49.737Z,18.90
2017-07-23T20:33:17.281Z,18.80
2017-07-23T20:35:44.812Z,18.70
2017-07-23T20:38:12.326Z,18.60
2017-07-23T20:40:39.860Z,18.50
2017-07-23T20:43:07.366Z,18.60
2017-07-23T20:45:34.908Z,18.50
2017-07-23T20:48:02.455Z,18.30
2017-07-23T20:50:29.969Z,18.20
2017-07-23T20:52:57.520Z,18.20
2017-07-23T20:55:25.268Z,18.10
2017-07-23T20:57:52.784Z,18.20
2017-07-23T21:00:20.307Z,18.10
2017-07-23T21:02:47.820Z,18.10
2017-07-23T21:05:15.660Z,18.00
2017-07-23T21:07:43.219Z,18.10
2017-07-23T21:10:10.774Z,18.10
2017-07-23T21:12:38.292Z,18.20
2017-07-23T21:15:05.829Z,18.10
2017-07-23T21:17:33.340Z,18.00
2017-07-23T21:20:00.892Z,17.90
2017-07-23T21:22:28.410Z,17.90
2017-07-23T21:24:55.944Z,18.00
2017-07-23T21:27:24.215Z,18.10
2017-07-23T21:29:52.521Z,18.30
2017-07-23T21:32:20.060Z,18.30
2017-07-23T21:34:47.573Z,18.20
2017-07-23T21:37:15.108Z,18.10
2017-07-23T21:39:42.640Z,18.10
2017-07-23T21:42:10.963Z,18.20
2017-07-23T21:44:38.494Z,18.10
2017-07-23T21:47:06.011Z,18.10
2017-07-23T21:49:33.576Z,18.10
2017-07-23T21:52:01.088Z,18.20
2017-07-23T21:54:28.599Z,18.10
2017-07-23T21:56:56.136Z,18.00
2017-07-23T21:59:23.649Z,18.00
2017-07-23T22:01:51.188Z,17.90
2017-07-23T22:04:19.496Z,17.90
2017-07-23T22:06:47.020Z,17.80
2017-07-23T22:09:15.320Z,18.10
2017-07-23T22:11:42.837Z,18.00
2017-07-23T22:14:10.409Z,18.00
2017-07-23T22:16:37.929Z,18.00
2017-07-23T22:19:05.460Z,18.00
2017-07-23T22:21:33.026Z,18.20
2017-07-23T22:24:00.536Z,18.20
2017-07-23T22:26:28.066Z,18.10
2017-07-23T22:28:55.583Z,18.10
2017-07-23T22:31:23.879Z,18.20
2017-07-23T22:33:51.407Z,18.10
2017-07-23T22:36:18.931Z,18.20
2017-07-23T22:38:46.473Z,18.20
2017-07-23T22:41:13.983Z,18.30
2017-07-23T22:43:41.534Z,18.10
2017-07-23T22:46:09.046Z,18.00
2017-07-23T22:48:36.567Z,18.00
2017-07-23T22:51:04.100Z,17.80
2017-07-23T22:53:31.668Z,17.90
2017-07-23T22:55:59.217Z,17.80
2017-07-23T22:58:26.728Z,17.80
2017-07-23T23:00:55.019Z,18.10
2017-07-23T23:03:22.542Z,18.10
2017-07-23T23:05:50.076Z,18.20
2017-07-23T23:08:17.591Z,18.20
2017-07-23T23:10:45.123Z,17.90
2017-07-23T23:13:12.642Z,18.00
2017-07-23T23:15:40.177Z,18.20
2017-07-23T23:18:07.689Z,18.00
2017-07-23T23:20:35.224Z,18.00
2017-07-23T23:23:02.731Z,18.00
2017-07-23T23:25:30.280Z,18.10
2017-07-23T23:27:57.789Z,18.00
2017-07-23T23:30:25.331Z,17.90
2017-07-23T23:32:52.843Z,17.80
2017-07-23T23:35:20.378Z,17.90
2017-07-23T23:37:47.891Z,17.90
2017-07-23T23:40:16.200Z,17.80
2017-07-23T23:42:43.720Z,17.70
2017-07-23T23:45:11.251Z,17.70
2017-07-23T23:47:38.764Z,17.80
2017-07-23T23:50:06.505Z,17.90
2017-07-23T23:52:34.825Z,17.80
2017-07-23T23:55:02.355Z,17.80
2017-07-23T23:57:30.628Z,17.70
2017-07-23T23:59:59.170Z,17.70
